sensor_id;sensor_type;location;lat;lon;timestamp;P1;durP1;ratioP1;P2;durP2;ratioP2
38222;SDS011;24024;51.186;6.458;2023-08-24T00:00:40;9.73;;;4.35;;
38222;SDS011;24024;51.186;6.458;2023-08-24T00:03:10;8.63;;;4.55;;
38222;SDS011;24024;51.186;6.458;2023-08-24T00:05:37;10.48;;;4.47;;
38222;SDS011;24024;51.186;6.458;2023-08-24T00:08:06;8.80;;;4.35;;
38222;SDS011;24024;51.186;6.458;2023-08-24T00:10:34;8.52;;;4.30;;
38222;SDS011;24024;51.186;6.458;2023-08-24T00:13:02;8.57;;;4.28;;
38222;SDS011;24024;51.186;6.458;2023-08-24T00:15:31;9.20;;;4.05;;
38222;SDS011;24024;51.186;6.458;2023-08-24T00:18:00;11.35;;;4.82;;
38222;SDS011;24024;51.186;6.458;2023-08-24T00:20:27;6.47;;;3.90;;
38222;SDS011;24024;51.186;6.458;2023-08-24T00:22:54;7.95;;;4.22;;
38222;SDS011;24024;51.186;6.458;2023-08-24T00:25:21;7.50;;;4.18;;
38222;SDS011;24024;51.186;6.458;2023-08-24T00:27:50;9.73;;;4.63;;
38222;SDS011;24024;51.186;6.458;2023-08-24T00:30:19;11.15;;;4.47;;
38222;SDS011;24024;51.186;6.458;2023-08-24T00:32:46;9.02;;;4.25;;
38222;SDS011;24024;51.186;6.458;2023-08-24T00:35:16;7.50;;;3.45;;
38222;SDS011;24024;51.186;6.458;2023-08-24T00:37:45;8.30;;;4.10;;
38222;SDS011;24024;51.186;6.458;2023-08-24T00:40:12;7.70;;;4.20;;
38222;SDS011;24024;51.186;6.458;2023-08-24T00:42:43;7.55;;;4.00;;
38222;SDS011;24024;51.186;6.458;2023-08-24T00:45:15;5.70;;;3.70;;
38222;SDS011;24024;51.186;6.458;2023-08-24T00:47:46;6.53;;;3.67;;
38222;SDS011;24024;51.186;6.458;2023-08-24T00:50:16;11.85;;;4.43;;
38222;SDS011;24024;51.186;6.458;2023-08-24T00:52:46;6.50;;;3.78;;
38222;SDS011;24024;51.186;6.458;2023-08-24T00:55:13;8.40;;;4.07;;
38222;SDS011;24024;51.186;6.458;2023-08-24T00:57:43;6.13;;;3.78;;
38222;SDS011;24024;51.186;6.458;2023-08-24T01:00:12;7.10;;;4.10;;
38222;SDS011;24024;51.186;6.458;2023-08-24T01:02:40;10.50;;;4.40;;
38222;SDS011;24024;51.186;6.458;2023-08-24T01:05:07;7.93;;;3.65;;
38222;SDS011;24024;51.186;6.458;2023-08-24T01:07:37;10.43;;;4.60;;
38222;SDS011;24024;51.186;6.458;2023-08-24T01:10:06;6.70;;;3.80;;
38222;SDS011;24024;51.186;6.458;2023-08-24T01:15:09;11.25;;;4.90;;
38222;SDS011;24024;51.186;6.458;2023-08-24T01:17:42;6.63;;;4.05;;
38222;SDS011;24024;51.186;6.458;2023-08-24T01:20:10;8.45;;;4.75;;
38222;SDS011;24024;51.186;6.458;2023-08-24T01:25:17;8.02;;;4.70;;
38222;SDS011;24024;51.186;6.458;2023-08-24T01:27:50;9.15;;;4.18;;
38222;SDS011;24024;51.186;6.458;2023-08-24T01:30:18;9.05;;;4.47;;
38222;SDS011;24024;51.186;6.458;2023-08-24T01:32:46;7.63;;;4.10;;
38222;SDS011;24024;51.186;6.458;2023-08-24T01:35:13;7.45;;;4.22;;
38222;SDS011;24024;51.186;6.458;2023-08-24T01:37:39;7.05;;;4.00;;
38222;SDS011;24024;51.186;6.458;2023-08-24T01:40:07;8.00;;;4.03;;
38222;SDS011;24024;51.186;6.458;2023-08-24T01:45:14;6.95;;;4.32;;
38222;SDS011;24024;51.186;6.458;2023-08-24T01:47:45;8.48;;;4.38;;
38222;SDS011;24024;51.186;6.458;2023-08-24T01:50:14;8.77;;;4.13;;
38222;SDS011;24024;51.186;6.458;2023-08-24T01:52:44;7.32;;;4.38;;
38222;SDS011;24024;51.186;6.458;2023-08-24T01:55:14;8.75;;;3.95;;
38222;SDS011;24024;51.186;6.458;2023-08-24T01:57:43;14.20;;;4.30;;
38222;SDS011;24024;51.186;6.458;2023-08-24T02:00:12;9.68;;;4.07;;
38222;SDS011;24024;51.186;6.458;2023-08-24T02:02:39;8.13;;;4.25;;
38222;SDS011;24024;51.186;6.458;2023-08-24T02:05:08;8.40;;;4.28;;
38222;SDS011;24024;51.186;6.458;2023-08-24T02:07:38;7.55;;;4.47;;
38222;SDS011;24024;51.186;6.458;2023-08-24T02:10:07;7.82;;;4.22;;
38222;SDS011;24024;51.186;6.458;2023-08-24T02:12:36;8.27;;;4.13;;
38222;SDS011;24024;51.186;6.458;2023-08-24T02:15:03;6.75;;;4.13;;
38222;SDS011;24024;51.186;6.458;2023-08-24T02:17:30;8.02;;;4.00;;
38222;SDS011;24024;51.186;6.458;2023-08-24T02:19:57;6.72;;;3.80;;
38222;SDS011;24024;51.186;6.458;2023-08-24T02:22:24;12.55;;;4.63;;
38222;SDS011;24024;51.186;6.458;2023-08-24T02:24:50;7.82;;;4.28;;
38222;SDS011;24024;51.186;6.458;2023-08-24T02:27:19;7.85;;;4.38;;
38222;SDS011;24024;51.186;6.458;2023-08-24T02:29:48;8.60;;;4.20;;
38222;SDS011;24024;51.186;6.458;2023-08-24T02:32:17;6.50;;;3.85;;
38222;SDS011;24024;51.186;6.458;2023-08-24T02:34:44;7.72;;;4.50;;
38222;SDS011;24024;51.186;6.458;2023-08-24T02:37:11;9.02;;;4.30;;
38222;SDS011;24024;51.186;6.458;2023-08-24T02:39:38;8.63;;;4.20;;
38222;SDS011;24024;51.186;6.458;2023-08-24T02:42:04;6.05;;;3.95;;
38222;SDS011;24024;51.186;6.458;2023-08-24T02:44:31;7.20;;;4.00;;
38222;SDS011;24024;51.186;6.458;2023-08-24T02:46:58;8.77;;;4.05;;
38222;SDS011;24024;51.186;6.458;2023-08-24T02:49:27;8.30;;;4.40;;
38222;SDS011;24024;51.186;6.458;2023-08-24T02:51:54;7.03;;;4.28;;
38222;SDS011;24024;51.186;6.458;2023-08-24T02:54:23;7.80;;;4.20;;
38222;SDS011;24024;51.186;6.458;2023-08-24T02:56:53;8.90;;;4.57;;
38222;SDS011;24024;51.186;6.458;2023-08-24T02:59:22;9.20;;;3.80;;
38222;SDS011;24024;51.186;6.458;2023-08-24T03:01:51;8.75;;;4.40;;
38222;SDS011;24024;51.186;6.458;2023-08-24T03:04:18;10.20;;;4.72;;
38222;SDS011;24024;51.186;6.458;2023-08-24T03:06:45;10.15;;;4.95;;
38222;SDS011;24024;51.186;6.458;2023-08-24T03:09:15;8.35;;;4.60;;
38222;SDS011;24024;51.186;6.458;2023-08-24T03:11:44;7.30;;;4.43;;
38222;SDS011;24024;51.186;6.458;2023-08-24T03:14:11;8.15;;;4.50;;
38222;SDS011;24024;51.186;6.458;2023-08-24T03:16:38;5.70;;;3.95;;
38222;SDS011;24024;51.186;6.458;2023-08-24T03:19:10;8.25;;;4.00;;
38222;SDS011;24024;51.186;6.458;2023-08-24T03:21:38;9.05;;;4.97;;
38222;SDS011;24024;51.186;6.458;2023-08-24T03:24:07;10.70;;;5.47;;
38222;SDS011;24024;51.186;6.458;2023-08-24T03:26:38;8.40;;;5.80;;
38222;SDS011;24024;51.186;6.458;2023-08-24T03:29:08;10.05;;;5.43;;
38222;SDS011;24024;51.186;6.458;2023-08-24T03:31:34;9.65;;;5.78;;
38222;SDS011;24024;51.186;6.458;2023-08-24T03:34:01;10.10;;;5.38;;
38222;SDS011;24024;51.186;6.458;2023-08-24T03:36:30;10.48;;;5.90;;
38222;SDS011;24024;51.186;6.458;2023-08-24T03:38:59;9.60;;;5.72;;
38222;SDS011;24024;51.186;6.458;2023-08-24T03:41:28;9.77;;;5.22;;
38222;SDS011;24024;51.186;6.458;2023-08-24T03:43:55;8.48;;;5.40;;
38222;SDS011;24024;51.186;6.458;2023-08-24T03:46:27;7.18;;;4.95;;
38222;SDS011;24024;51.186;6.458;2023-08-24T03:48:54;11.25;;;5.13;;
38222;SDS011;24024;51.186;6.458;2023-08-24T03:51:21;9.23;;;5.47;;
38222;SDS011;24024;51.186;6.458;2023-08-24T03:53:48;9.02;;;5.07;;
38222;SDS011;24024;51.186;6.458;2023-08-24T03:56:15;8.15;;;5.00;;
38222;SDS011;24024;51.186;6.458;2023-08-24T03:58:42;7.45;;;5.07;;
38222;SDS011;24024;51.186;6.458;2023-08-24T04:01:12;7.57;;;4.88;;
38222;SDS011;24024;51.186;6.458;2023-08-24T04:03:41;9.48;;;4.97;;
38222;SDS011;24024;51.186;6.458;2023-08-24T04:06:08;7.97;;;5.05;;
38222;SDS011;24024;51.186;6.458;2023-08-24T04:08:35;9.45;;;5.20;;
38222;SDS011;24024;51.186;6.458;2023-08-24T04:11:04;12.20;;;5.72;;
38222;SDS011;24024;51.186;6.458;2023-08-24T04:13:30;10.80;;;5.70;;
38222;SDS011;24024;51.186;6.458;2023-08-24T04:15:57;10.30;;;5.45;;
38222;SDS011;24024;51.186;6.458;2023-08-24T04:20:56;9.10;;;5.05;;
38222;SDS011;24024;51.186;6.458;2023-08-24T04:23:25;8.63;;;5.97;;
38222;SDS011;24024;51.186;6.458;2023-08-24T04:28:26;10.98;;;5.50;;
38222;SDS011;24024;51.186;6.458;2023-08-24T04:30:53;11.02;;;5.40;;
38222;SDS011;24024;51.186;6.458;2023-08-24T04:33:23;10.40;;;5.72;;
38222;SDS011;24024;51.186;6.458;2023-08-24T04:35:58;9.77;;;6.00;;
38222;SDS011;24024;51.186;6.458;2023-08-24T04:38:25;12.15;;;5.63;;
38222;SDS011;24024;51.186;6.458;2023-08-24T04:40:53;8.85;;;5.15;;
38222;SDS011;24024;51.186;6.458;2023-08-24T04:43:22;8.43;;;6.00;;
38222;SDS011;24024;51.186;6.458;2023-08-24T04:45:50;10.07;;;5.70;;
38222;SDS011;24024;51.186;6.458;2023-08-24T04:48:24;10.73;;;5.82;;
38222;SDS011;24024;51.186;6.458;2023-08-24T04:50:53;9.85;;;5.60;;
38222;SDS011;24024;51.186;6.458;2023-08-24T04:53:22;13.32;;;6.40;;
38222;SDS011;24024;51.186;6.458;2023-08-24T04:55:49;11.63;;;6.05;;
38222;SDS011;24024;51.186;6.458;2023-08-24T04:58:15;11.77;;;5.93;;
38222;SDS011;24024;51.186;6.458;2023-08-24T05:00:42;10.95;;;6.43;;
38222;SDS011;24024;51.186;6.458;2023-08-24T05:03:10;10.05;;;6.03;;
38222;SDS011;24024;51.186;6.458;2023-08-24T05:05:37;9.63;;;5.78;;
38222;SDS011;24024;51.186;6.458;2023-08-24T05:08:06;8.63;;;4.55;;
38222;SDS011;24024;51.186;6.458;2023-08-24T05:10:38;12.73;;;6.20;;
38222;SDS011;24024;51.186;6.458;2023-08-24T05:13:06;12.45;;;6.20;;
38222;SDS011;24024;51.186;6.458;2023-08-24T05:15:33;9.75;;;5.43;;
38222;SDS011;24024;51.186;6.458;2023-08-24T05:18:02;12.13;;;5.78;;
38222;SDS011;24024;51.186;6.458;2023-08-24T05:20:33;9.20;;;5.22;;
38222;SDS011;24024;51.186;6.458;2023-08-24T05:23:02;13.20;;;5.63;;
38222;SDS011;24024;51.186;6.458;2023-08-24T05:25:29;8.18;;;5.28;;
38222;SDS011;24024;51.186;6.458;2023-08-24T05:28:00;11.05;;;5.28;;
38222;SDS011;24024;51.186;6.458;2023-08-24T05:30:27;12.30;;;5.53;;
38222;SDS011;24024;51.186;6.458;2023-08-24T05:32:56;9.63;;;5.35;;
38222;SDS011;24024;51.186;6.458;2023-08-24T05:35:23;11.20;;;5.95;;
38222;SDS011;24024;51.186;6.458;2023-08-24T05:37:53;7.63;;;4.70;;
38222;SDS011;24024;51.186;6.458;2023-08-24T05:40:22;9.73;;;5.35;;
38222;SDS011;24024;51.186;6.458;2023-08-24T05:42:51;11.60;;;5.20;;
38222;SDS011;24024;51.186;6.458;2023-08-24T05:45:19;9.65;;;5.03;;
38222;SDS011;24024;51.186;6.458;2023-08-24T05:47:51;13.13;;;5.35;;
38222;SDS011;24024;51.186;6.458;2023-08-24T05:50:19;8.48;;;4.82;;
38222;SDS011;24024;51.186;6.458;2023-08-24T05:52:45;9.65;;;5.40;;
38222;SDS011;24024;51.186;6.458;2023-08-24T05:55:12;8.77;;;5.30;;
38222;SDS011;24024;51.186;6.458;2023-08-24T05:57:39;8.73;;;5.30;;
38222;SDS011;24024;51.186;6.458;2023-08-24T06:00:05;12.23;;;5.60;;
38222;SDS011;24024;51.186;6.458;2023-08-24T06:02:39;12.32;;;5.47;;
38222;SDS011;24024;51.186;6.458;2023-08-24T06:05:06;14.07;;;6.22;;
38222;SDS011;24024;51.186;6.458;2023-08-24T06:07:37;11.10;;;6.30;;
38222;SDS011;24024;51.186;6.458;2023-08-24T06:10:04;10.88;;;5.07;;
38222;SDS011;24024;51.186;6.458;2023-08-24T06:12:32;9.35;;;5.25;;
38222;SDS011;24024;51.186;6.458;2023-08-24T06:14:58;9.30;;;5.35;;
38222;SDS011;24024;51.186;6.458;2023-08-24T06:17:30;11.05;;;5.70;;
38222;SDS011;24024;51.186;6.458;2023-08-24T06:19:57;11.77;;;6.40;;
38222;SDS011;24024;51.186;6.458;2023-08-24T06:22:28;9.90;;;5.07;;
38222;SDS011;24024;51.186;6.458;2023-08-24T06:24:57;10.77;;;6.00;;
38222;SDS011;24024;51.186;6.458;2023-08-24T06:27:28;10.23;;;5.95;;
38222;SDS011;24024;51.186;6.458;2023-08-24T06:29:55;11.18;;;5.75;;
38222;SDS011;24024;51.186;6.458;2023-08-24T06:32:26;11.27;;;5.90;;
38222;SDS011;24024;51.186;6.458;2023-08-24T06:34:53;8.25;;;5.80;;
38222;SDS011;24024;51.186;6.458;2023-08-24T06:37:21;9.07;;;5.55;;
38222;SDS011;24024;51.186;6.458;2023-08-24T06:39:48;12.30;;;6.57;;
38222;SDS011;24024;51.186;6.458;2023-08-24T06:42:15;10.80;;;6.00;;
38222;SDS011;24024;51.186;6.458;2023-08-24T06:44:46;11.95;;;5.80;;
38222;SDS011;24024;51.186;6.458;2023-08-24T06:47:16;10.38;;;6.22;;
38222;SDS011;24024;51.186;6.458;2023-08-24T06:49:43;11.30;;;6.80;;
38222;SDS011;24024;51.186;6.458;2023-08-24T06:52:10;9.80;;;6.05;;
38222;SDS011;24024;51.186;6.458;2023-08-24T06:54:39;11.20;;;6.45;;
38222;SDS011;24024;51.186;6.458;2023-08-24T06:57:05;11.13;;;5.93;;
38222;SDS011;24024;51.186;6.458;2023-08-24T06:59:32;10.75;;;6.40;;
38222;SDS011;24024;51.186;6.458;2023-08-24T07:01:59;11.45;;;6.68;;
38222;SDS011;24024;51.186;6.458;2023-08-24T07:04:26;8.32;;;5.85;;
38222;SDS011;24024;51.186;6.458;2023-08-24T07:06:54;15.02;;;6.57;;
38222;SDS011;24024;51.186;6.458;2023-08-24T07:09:20;10.82;;;6.90;;
38222;SDS011;24024;51.186;6.458;2023-08-24T07:11:48;12.80;;;7.10;;
38222;SDS011;24024;51.186;6.458;2023-08-24T07:14:17;13.45;;;6.75;;
38222;SDS011;24024;51.186;6.458;2023-08-24T07:16:46;10.85;;;5.95;;
38222;SDS011;24024;51.186;6.458;2023-08-24T07:19:15;13.23;;;6.18;;
38222;SDS011;24024;51.186;6.458;2023-08-24T07:21:43;10.73;;;6.43;;
38222;SDS011;24024;51.186;6.458;2023-08-24T07:24:09;9.32;;;5.32;;
38222;SDS011;24024;51.186;6.458;2023-08-24T07:26:36;10.90;;;6.13;;
38222;SDS011;24024;51.186;6.458;2023-08-24T07:29:05;8.55;;;5.22;;
38222;SDS011;24024;51.186;6.458;2023-08-24T07:31:34;7.78;;;5.20;;
38222;SDS011;24024;51.186;6.458;2023-08-24T07:34:05;11.63;;;5.60;;
38222;SDS011;24024;51.186;6.458;2023-08-24T07:36:31;10.75;;;5.78;;
38222;SDS011;24024;51.186;6.458;2023-08-24T07:39:01;10.65;;;5.45;;
38222;SDS011;24024;51.186;6.458;2023-08-24T07:41:29;9.35;;;5.85;;
38222;SDS011;24024;51.186;6.458;2023-08-24T07:43:56;12.60;;;6.38;;
38222;SDS011;24024;51.186;6.458;2023-08-24T07:46:23;8.93;;;5.20;;
38222;SDS011;24024;51.186;6.458;2023-08-24T07:48:50;8.88;;;5.78;;
38222;SDS011;24024;51.186;6.458;2023-08-24T07:51:16;8.93;;;4.95;;
38222;SDS011;24024;51.186;6.458;2023-08-24T07:53:45;11.60;;;4.75;;
38222;SDS011;24024;51.186;6.458;2023-08-24T07:56:12;10.00;;;5.40;;
38222;SDS011;24024;51.186;6.458;2023-08-24T07:58:39;8.60;;;5.15;;
38222;SDS011;24024;51.186;6.458;2023-08-24T08:01:08;9.43;;;4.90;;
38222;SDS011;24024;51.186;6.458;2023-08-24T08:03:37;8.15;;;4.47;;
38222;SDS011;24024;51.186;6.458;2023-08-24T08:06:05;9.00;;;5.10;;
38222;SDS011;24024;51.186;6.458;2023-08-24T08:08:32;8.15;;;4.47;;
38222;SDS011;24024;51.186;6.458;2023-08-24T08:10:59;8.57;;;4.60;;
38222;SDS011;24024;51.186;6.458;2023-08-24T08:16:06;10.27;;;4.00;;
38222;SDS011;24024;51.186;6.458;2023-08-24T08:18:34;10.65;;;4.70;;
38222;SDS011;24024;51.186;6.458;2023-08-24T08:21:08;7.55;;;4.07;;
38222;SDS011;24024;51.186;6.458;2023-08-24T08:23:42;8.55;;;4.45;;
38222;SDS011;24024;51.186;6.458;2023-08-24T08:26:15;7.47;;;4.40;;
38222;SDS011;24024;51.186;6.458;2023-08-24T08:28:42;9.38;;;3.30;;
38222;SDS011;24024;51.186;6.458;2023-08-24T08:31:10;6.95;;;3.58;;
38222;SDS011;24024;51.186;6.458;2023-08-24T08:33:37;10.38;;;4.20;;
38222;SDS011;24024;51.186;6.458;2023-08-24T08:36:03;6.10;;;3.60;;
38222;SDS011;24024;51.186;6.458;2023-08-24T08:38:33;7.53;;;3.95;;
38222;SDS011;24024;51.186;6.458;2023-08-24T08:41:03;8.55;;;4.13;;
38222;SDS011;24024;51.186;6.458;2023-08-24T08:43:30;9.25;;;4.68;;
38222;SDS011;24024;51.186;6.458;2023-08-24T08:45:59;8.32;;;4.30;;
38222;SDS011;24024;51.186;6.458;2023-08-24T08:48:28;12.95;;;4.60;;
38222;SDS011;24024;51.186;6.458;2023-08-24T08:50:57;9.05;;;4.25;;
38222;SDS011;24024;51.186;6.458;2023-08-24T08:53:24;7.18;;;3.60;;
38222;SDS011;24024;51.186;6.458;2023-08-24T08:55:51;8.23;;;3.72;;
38222;SDS011;24024;51.186;6.458;2023-08-24T09:00:51;9.63;;;3.35;;
38222;SDS011;24024;51.186;6.458;2023-08-24T09:03:18;8.60;;;4.60;;
38222;SDS011;24024;51.186;6.458;2023-08-24T09:05:48;8.90;;;4.30;;
38222;SDS011;24024;51.186;6.458;2023-08-24T09:08:20;9.63;;;3.78;;
38222;SDS011;24024;51.186;6.458;2023-08-24T09:13:17;10.35;;;4.40;;
38222;SDS011;24024;51.186;6.458;2023-08-24T09:15:44;7.15;;;4.18;;
38222;SDS011;24024;51.186;6.458;2023-08-24T09:18:13;7.75;;;4.38;;
38222;SDS011;24024;51.186;6.458;2023-08-24T09:20:39;4.97;;;3.15;;
38222;SDS011;24024;51.186;6.458;2023-08-24T09:23:18;8.90;;;4.28;;
38222;SDS011;24024;51.186;6.458;2023-08-24T09:25:46;9.70;;;4.07;;
38222;SDS011;24024;51.186;6.458;2023-08-24T09:28:22;9.38;;;4.43;;
38222;SDS011;24024;51.186;6.458;2023-08-24T09:30:54;7.97;;;4.20;;
38222;SDS011;24024;51.186;6.458;2023-08-24T09:33:24;9.85;;;5.00;;
38222;SDS011;24024;51.186;6.458;2023-08-24T09:35:52;6.82;;;3.55;;
38222;SDS011;24024;51.186;6.458;2023-08-24T09:38:27;9.65;;;4.80;;
38222;SDS011;24024;51.186;6.458;2023-08-24T09:40:59;6.72;;;3.90;;
38222;SDS011;24024;51.186;6.458;2023-08-24T09:43:29;8.98;;;4.10;;
38222;SDS011;24024;51.186;6.458;2023-08-24T09:45:59;7.45;;;4.45;;
38222;SDS011;24024;51.186;6.458;2023-08-24T09:48:26;7.65;;;4.05;;
38222;SDS011;24024;51.186;6.458;2023-08-24T09:50:57;7.63;;;3.85;;
38222;SDS011;24024;51.186;6.458;2023-08-24T09:53:32;10.18;;;4.60;;
38222;SDS011;24024;51.186;6.458;2023-08-24T09:56:02;8.82;;;3.75;;
38222;SDS011;24024;51.186;6.458;2023-08-24T09:58:33;6.57;;;3.13;;
38222;SDS011;24024;51.186;6.458;2023-08-24T10:01:01;7.53;;;3.25;;
38222;SDS011;24024;51.186;6.458;2023-08-24T10:03:30;8.25;;;3.80;;
38222;SDS011;24024;51.186;6.458;2023-08-24T10:06:03;7.25;;;3.45;;
38222;SDS011;24024;51.186;6.458;2023-08-24T10:08:46;7.27;;;3.57;;
38222;SDS011;24024;51.186;6.458;2023-08-24T10:11:17;6.18;;;3.22;;
38222;SDS011;24024;51.186;6.458;2023-08-24T10:16:19;6.10;;;3.50;;
38222;SDS011;24024;51.186;6.458;2023-08-24T10:18:47;5.57;;;3.33;;
38222;SDS011;24024;51.186;6.458;2023-08-24T10:21:17;8.65;;;3.33;;
38222;SDS011;24024;51.186;6.458;2023-08-24T10:23:47;6.75;;;3.00;;
38222;SDS011;24024;51.186;6.458;2023-08-24T10:26:18;5.10;;;2.78;;
38222;SDS011;24024;51.186;6.458;2023-08-24T10:28:46;7.35;;;3.40;;
38222;SDS011;24024;51.186;6.458;2023-08-24T10:31:13;6.43;;;3.55;;
38222;SDS011;24024;51.186;6.458;2023-08-24T10:33:43;6.43;;;3.30;;
38222;SDS011;24024;51.186;6.458;2023-08-24T10:36:12;7.13;;;4.07;;
38222;SDS011;24024;51.186;6.458;2023-08-24T10:38:44;8.55;;;3.47;;
38222;SDS011;24024;51.186;6.458;2023-08-24T10:41:13;9.32;;;3.95;;
38222;SDS011;24024;51.186;6.458;2023-08-24T10:43:41;8.73;;;3.67;;
38222;SDS011;24024;51.186;6.458;2023-08-24T10:46:15;6.93;;;3.58;;
38222;SDS011;24024;51.186;6.458;2023-08-24T10:51:22;10.30;;;5.70;;
38222;SDS011;24024;51.186;6.458;2023-08-24T10:53:53;18.75;;;8.05;;
38222;SDS011;24024;51.186;6.458;2023-08-24T10:59:16;18.05;;;8.02;;
38222;SDS011;24024;51.186;6.458;2023-08-24T11:04:20;27.40;;;11.43;;
38222;SDS011;24024;51.186;6.458;2023-08-24T11:09:25;19.17;;;9.10;;
38222;SDS011;24024;51.186;6.458;2023-08-24T11:12:11;29.33;;;12.48;;
38222;SDS011;24024;51.186;6.458;2023-08-24T11:14:48;19.15;;;8.98;;
38222;SDS011;24024;51.186;6.458;2023-08-24T11:17:17;16.63;;;6.88;;
38222;SDS011;24024;51.186;6.458;2023-08-24T11:19:47;18.02;;;10.27;;
38222;SDS011;24024;51.186;6.458;2023-08-24T11:22:18;9.10;;;3.55;;
38222;SDS011;24024;51.186;6.458;2023-08-24T11:24:45;6.13;;;3.08;;
38222;SDS011;24024;51.186;6.458;2023-08-24T11:27:11;7.85;;;3.13;;
38222;SDS011;24024;51.186;6.458;2023-08-24T11:29:42;7.30;;;3.65;;
38222;SDS011;24024;51.186;6.458;2023-08-24T11:32:13;8.95;;;3.30;;
38222;SDS011;24024;51.186;6.458;2023-08-24T11:34:40;6.90;;;3.58;;
38222;SDS011;24024;51.186;6.458;2023-08-24T11:37:07;8.57;;;3.72;;
38222;SDS011;24024;51.186;6.458;2023-08-24T11:39:45;5.05;;;2.63;;
38222;SDS011;24024;51.186;6.458;2023-08-24T11:42:12;7.07;;;2.92;;
38222;SDS011;24024;51.186;6.458;2023-08-24T11:44:48;10.48;;;3.83;;
38222;SDS011;24024;51.186;6.458;2023-08-24T11:47:15;5.85;;;2.58;;
38222;SDS011;24024;51.186;6.458;2023-08-24T11:49:42;6.78;;;2.67;;
38222;SDS011;24024;51.186;6.458;2023-08-24T11:52:09;6.75;;;3.00;;
38222;SDS011;24024;51.186;6.458;2023-08-24T11:54:36;10.30;;;2.90;;
38222;SDS011;24024;51.186;6.458;2023-08-24T11:57:08;10.55;;;3.28;;
38222;SDS011;24024;51.186;6.458;2023-08-24T11:59:35;8.85;;;3.33;;
38222;SDS011;24024;51.186;6.458;2023-08-24T12:02:05;7.28;;;3.03;;
38222;SDS011;24024;51.186;6.458;2023-08-24T12:04:39;9.57;;;2.90;;
38222;SDS011;24024;51.186;6.458;2023-08-24T12:07:13;8.35;;;3.15;;
38222;SDS011;24024;51.186;6.458;2023-08-24T12:09:43;10.27;;;2.90;;
38222;SDS011;24024;51.186;6.458;2023-08-24T12:12:13;9.50;;;3.50;;
38222;SDS011;24024;51.186;6.458;2023-08-24T12:14:42;8.43;;;3.88;;
38222;SDS011;24024;51.186;6.458;2023-08-24T12:17:10;8.02;;;3.47;;
38222;SDS011;24024;51.186;6.458;2023-08-24T12:19:40;9.88;;;3.45;;
38222;SDS011;24024;51.186;6.458;2023-08-24T12:22:12;38.08;;;16.05;;
38222;SDS011;24024;51.186;6.458;2023-08-24T12:24:43;23.83;;;11.55;;
38222;SDS011;24024;51.186;6.458;2023-08-24T12:27:29;30.77;;;13.63;;
38222;SDS011;24024;51.186;6.458;2023-08-24T12:29:59;10.85;;;5.80;;
38222;SDS011;24024;51.186;6.458;2023-08-24T12:32:43;15.27;;;5.65;;
38222;SDS011;24024;51.186;6.458;2023-08-24T12:35:17;26.90;;;12.38;;
38222;SDS011;24024;51.186;6.458;2023-08-24T12:37:44;43.95;;;17.13;;
38222;SDS011;24024;51.186;6.458;2023-08-24T12:40:12;50.28;;;21.45;;
38222;SDS011;24024;51.186;6.458;2023-08-24T12:42:44;37.17;;;16.45;;
38222;SDS011;24024;51.186;6.458;2023-08-24T12:45:11;32.08;;;15.60;;
38222;SDS011;24024;51.186;6.458;2023-08-24T12:47:38;22.10;;;8.70;;
38222;SDS011;24024;51.186;6.458;2023-08-24T12:50:07;16.20;;;7.80;;
38222;SDS011;24024;51.186;6.458;2023-08-24T12:52:37;31.15;;;12.65;;
38222;SDS011;24024;51.186;6.458;2023-08-24T12:55:06;9.70;;;5.55;;
38222;SDS011;24024;51.186;6.458;2023-08-24T12:57:35;12.90;;;6.40;;
38222;SDS011;24024;51.186;6.458;2023-08-24T13:00:02;18.70;;;7.80;;
38222;SDS011;24024;51.186;6.458;2023-08-24T13:02:34;14.35;;;6.47;;
38222;SDS011;24024;51.186;6.458;2023-08-24T13:05:04;8.60;;;4.25;;
38222;SDS011;24024;51.186;6.458;2023-08-24T13:07:34;9.57;;;3.95;;
38222;SDS011;24024;51.186;6.458;2023-08-24T13:10:02;9.07;;;4.35;;
38222;SDS011;24024;51.186;6.458;2023-08-24T13:12:29;7.57;;;3.80;;
38222;SDS011;24024;51.186;6.458;2023-08-24T13:14:58;7.32;;;4.10;;
38222;SDS011;24024;51.186;6.458;2023-08-24T13:17:25;7.93;;;3.45;;
38222;SDS011;24024;51.186;6.458;2023-08-24T13:19:52;7.95;;;3.80;;
38222;SDS011;24024;51.186;6.458;2023-08-24T13:22:19;6.03;;;3.17;;
38222;SDS011;24024;51.186;6.458;2023-08-24T13:24:46;10.95;;;4.85;;
38222;SDS011;24024;51.186;6.458;2023-08-24T13:27:15;10.35;;;4.32;;
38222;SDS011;24024;51.186;6.458;2023-08-24T13:29:44;9.63;;;4.65;;
38222;SDS011;24024;51.186;6.458;2023-08-24T13:32:11;9.52;;;5.10;;
38222;SDS011;24024;51.186;6.458;2023-08-24T13:34:40;8.15;;;4.30;;
38222;SDS011;24024;51.186;6.458;2023-08-24T13:37:07;7.15;;;3.88;;
38222;SDS011;24024;51.186;6.458;2023-08-24T13:39:33;7.22;;;3.97;;
38222;SDS011;24024;51.186;6.458;2023-08-24T13:42:01;9.82;;;3.75;;
38222;SDS011;24024;51.186;6.458;2023-08-24T13:44:28;8.30;;;4.18;;
38222;SDS011;24024;51.186;6.458;2023-08-24T13:46:57;10.68;;;4.20;;
38222;SDS011;24024;51.186;6.458;2023-08-24T13:49:24;8.90;;;4.10;;
38222;SDS011;24024;51.186;6.458;2023-08-24T13:52:05;9.18;;;3.95;;
38222;SDS011;24024;51.186;6.458;2023-08-24T13:54:32;8.45;;;3.35;;
38222;SDS011;24024;51.186;6.458;2023-08-24T13:57:02;8.82;;;3.67;;
38222;SDS011;24024;51.186;6.458;2023-08-24T13:59:28;7.90;;;3.60;;
38222;SDS011;24024;51.186;6.458;2023-08-24T14:02:00;10.63;;;4.30;;
38222;SDS011;24024;51.186;6.458;2023-08-24T14:04:27;6.70;;;3.17;;
38222;SDS011;24024;51.186;6.458;2023-08-24T14:06:56;6.60;;;3.17;;
38222;SDS011;24024;51.186;6.458;2023-08-24T14:09:23;6.78;;;3.13;;
38222;SDS011;24024;51.186;6.458;2023-08-24T14:11:49;7.05;;;3.08;;
38222;SDS011;24024;51.186;6.458;2023-08-24T14:14:16;7.40;;;3.50;;
38222;SDS011;24024;51.186;6.458;2023-08-24T14:16:43;8.88;;;3.47;;
38222;SDS011;24024;51.186;6.458;2023-08-24T14:19:10;9.15;;;3.40;;
38222;SDS011;24024;51.186;6.458;2023-08-24T14:21:38;6.03;;;2.92;;
38222;SDS011;24024;51.186;6.458;2023-08-24T14:24:08;5.70;;;2.80;;
38222;SDS011;24024;51.186;6.458;2023-08-24T14:26:37;8.52;;;3.60;;
38222;SDS011;24024;51.186;6.458;2023-08-24T14:29:05;6.43;;;3.05;;
38222;SDS011;24024;51.186;6.458;2023-08-24T14:31:32;8.85;;;3.53;;
38222;SDS011;24024;51.186;6.458;2023-08-24T14:33:59;4.78;;;2.80;;
38222;SDS011;24024;51.186;6.458;2023-08-24T14:36:28;6.63;;;3.22;;
38222;SDS011;24024;51.186;6.458;2023-08-24T14:38:55;8.25;;;3.15;;
38222;SDS011;24024;51.186;6.458;2023-08-24T14:41:22;7.60;;;2.90;;
38222;SDS011;24024;51.186;6.458;2023-08-24T14:43:51;7.45;;;2.90;;
38222;SDS011;24024;51.186;6.458;2023-08-24T14:46:17;7.45;;;2.92;;
38222;SDS011;24024;51.186;6.458;2023-08-24T14:48:47;8.10;;;3.13;;
38222;SDS011;24024;51.186;6.458;2023-08-24T14:51:14;8.55;;;2.72;;
38222;SDS011;24024;51.186;6.458;2023-08-24T14:53:41;6.72;;;3.08;;
38222;SDS011;24024;51.186;6.458;2023-08-24T14:56:10;7.50;;;3.15;;
38222;SDS011;24024;51.186;6.458;2023-08-24T14:58:39;7.70;;;2.80;;
38222;SDS011;24024;51.186;6.458;2023-08-24T15:01:06;6.78;;;2.60;;
38222;SDS011;24024;51.186;6.458;2023-08-24T15:03:33;4.47;;;2.38;;
38222;SDS011;24024;51.186;6.458;2023-08-24T15:06:03;7.53;;;2.78;;
38222;SDS011;24024;51.186;6.458;2023-08-24T15:08:34;5.43;;;2.60;;
38222;SDS011;24024;51.186;6.458;2023-08-24T15:11:01;7.82;;;2.70;;
38222;SDS011;24024;51.186;6.458;2023-08-24T15:13:32;7.28;;;2.80;;
38222;SDS011;24024;51.186;6.458;2023-08-24T15:16:01;7.07;;;2.47;;
38222;SDS011;24024;51.186;6.458;2023-08-24T15:18:30;7.47;;;2.22;;
38222;SDS011;24024;51.186;6.458;2023-08-24T15:20:59;6.82;;;2.33;;
38222;SDS011;24024;51.186;6.458;2023-08-24T15:23:27;5.38;;;2.40;;
38222;SDS011;24024;51.186;6.458;2023-08-24T15:25:59;7.20;;;2.50;;